Aeroporto :
LOGIN :

Iscrizione | Disclaimer

   EN    FR    IT 

 










Sommario :    VFR   VFR Marginale   IFR   IFR Intensivo   IFR Molto Intensivo
Visibilità : 
Base nubi : 
>= 8 km
>= 3000ft
5 / 8 km
1000 / 3000 ft
1500m / 5 km
500 / 1000 ft
800 / 1500m
200 / 500 ft
< 800m
< 200 ft
Simboli :   Temporali  Nebbia  Neve Forte  Precipitazioni Forti  Vento > 20 kt
SIGMETs :   Varie  Temporali  Ghiacco  Turbolenza  Onda orograficha  Ceneri Vulcaniche






- Altitudine del aeroporto : 459 ft
- Codice IATA : CER


LFRC - Cherbourg / Maupertus

ULTIMO METAR :
  • 171800Z AUTO 26017KT 9999 FEW029 SCT170 07/04 Q1018 TEMPO 4000 SHRA SCT013CB SCT018TCU BECMG 26017G30KT

METARs OBSOLETI :
  • 171730Z AUTO 25016KT CAVOK 06/04 Q1018 TEMPO 4000 SHRA SCT013CB SCT018TCU BECMG 26017G30KT
  • 171700Z AUTO 27020G31KT 9999 -RA FEW022/// BKN039/// BKN064/// ///TCU 06/04 Q1018 TEMPO 24025G50KT 4000 SHRA SCT013CB SCT018TCU
  • 171630Z AUTO 25020KT 9999 FEW018 SCT086 BKN110 08/04 Q1017 TEMPO 4000 SHRA SCT013CB SCT018TCU BECMG 26017G30KT
  • 171600Z AUTO 26020KT 9999 -RA BKN025 BKN060 BKN070 08/05 Q1017 TEMPO 24025G50KT 2000 +TSRAGS BKN015CB
  • 171530Z AUTO 25021KT 220V280 9999 FEW025 SCT064 BKN092 09/05 Q1016 TEMPO 24025G50KT 2000 +TSRAGS BKN015CB

TAF TAF LFRC
Valido dal 17 a 15 ore il 18 a 00 ore UTC


171400Z 1715/1724 22020G40KT 9999 BKN030
TEMPO 1715/1718 24025G50KT 2000 +TSRAGS BKN015CB
TEMPO 1718/1721 4000 SHRA SCT013CB SCT018TCU
BECMG 1718/1720 26017G30KT
TEMPO 1721/1724 5000 SHRA



MetMap, La meteo Aeronautica in un colpo d'occhio ! - Copyright ORBIFLY Dicembre 2007 - Disclaimer

ORBIFLY MET'MAP TEAM :

Programmazione e sviluppo : Alexandra Zaïnal
Concezione : Baudouin d'Aumeries
Aiuto per la programmazione : Marc-Olivier Méhu
Supporto tecnico e logistico : Manuel Goepfert
Aiuto per la traduzione : Arnaldo La Scala

Contatto : metmap@orbifly.com




FONTI E CREDITI :

   NOAA